createdAt,value
2018-12-23T00:00:53.256Z,6.23
2018-12-23T00:03:20.728Z,5.90
2018-12-23T00:05:48.159Z,6.10
2018-12-23T00:08:15.644Z,7.00
2018-12-23T00:10:43.103Z,7.10
2018-12-23T00:13:10.572Z,6.70
2018-12-23T00:15:38.025Z,5.67
2018-12-23T00:18:05.489Z,6.63
2018-12-23T00:20:32.919Z,6.17
2018-12-23T00:23:00.432Z,5.40
2018-12-23T00:25:27.872Z,5.37
2018-12-23T00:27:55.363Z,5.70
2018-12-23T00:30:22.791Z,5.70
2018-12-23T00:32:50.260Z,5.67
2018-12-23T00:35:20.514Z,5.10
2018-12-23T00:37:47.330Z,5.43
2018-12-23T00:40:14.897Z,5.30
2018-12-23T00:42:42.356Z,5.30
2018-12-23T00:45:09.922Z,5.20
2018-12-23T00:47:37.392Z,5.40
2018-12-23T00:50:06.077Z,6.30
2018-12-23T00:52:33.527Z,5.23
2018-12-23T00:55:01.025Z,5.63
2018-12-23T00:57:28.557Z,5.40
2018-12-23T00:59:56.115Z,5.93
2018-12-23T01:02:23.784Z,5.70
2018-12-23T01:04:51.347Z,5.50
2018-12-23T01:07:19.032Z,5.63
2018-12-23T01:09:46.572Z,5.60
2018-12-23T01:12:14.045Z,5.77
2018-12-23T01:14:41.477Z,6.43
2018-12-23T01:17:08.992Z,5.50
2018-12-23T01:19:36.424Z,6.50
2018-12-23T01:22:03.988Z,5.87
2018-12-23T01:24:31.455Z,6.47
2018-12-23T01:26:58.884Z,7.10
2018-12-23T01:29:26.317Z,6.40
2018-12-23T01:31:53.755Z,6.40
2018-12-23T01:34:21.295Z,7.53
2018-12-23T01:36:48.756Z,6.70
2018-12-23T01:39:16.336Z,7.10
2018-12-23T01:41:43.792Z,7.07
2018-12-23T01:44:11.247Z,7.73
2018-12-23T01:46:38.703Z,7.50
2018-12-23T01:49:06.171Z,7.27
2018-12-23T01:51:33.623Z,7.53
2018-12-23T01:54:01.088Z,6.97
2018-12-23T01:56:28.552Z,8.90
2018-12-23T01:58:55.987Z,7.77
2018-12-23T02:01:23.484Z,8.30
2018-12-23T02:03:50.940Z,8.13
2018-12-23T02:06:18.397Z,8.23
2018-12-23T02:08:45.855Z,8.27
2018-12-23T02:11:13.317Z,8.60
2018-12-23T02:13:40.889Z,8.67
2018-12-23T02:16:08.344Z,8.53
2018-12-23T02:18:35.816Z,8.90
2018-12-23T02:21:03.276Z,9.00
2018-12-23T02:23:30.828Z,8.70
2018-12-23T02:25:58.397Z,8.40
2018-12-23T02:28:25.832Z,9.77
2018-12-23T02:30:53.394Z,9.07
2018-12-23T02:33:20.881Z,10.00
2018-12-23T02:35:55.424Z,8.97
2018-12-23T02:38:17.862Z,10.63
2018-12-23T02:40:45.287Z,10.50
2018-12-23T02:43:12.776Z,11.47
2018-12-23T02:45:40.240Z,12.13
2018-12-23T02:48:07.700Z,11.20
2018-12-23T02:50:35.132Z,10.73
2018-12-23T02:53:02.618Z,10.63
2018-12-23T02:55:30.185Z,12.47
2018-12-23T02:57:57.648Z,12.67
2018-12-23T03:00:25.108Z,11.80
2018-12-23T03:02:52.572Z,11.50
2018-12-23T03:05:20.008Z,11.00
2018-12-23T03:07:47.493Z,11.97
2018-12-23T03:10:14.957Z,11.10
2018-12-23T03:12:42.484Z,11.27
2018-12-23T03:15:09.985Z,10.47
2018-12-23T03:17:37.451Z,10.90
2018-12-23T03:20:05.748Z,9.50
2018-12-23T03:22:33.284Z,10.63
2018-12-23T03:25:00.726Z,10.27
2018-12-23T03:27:28.365Z,9.57
2018-12-23T03:29:55.872Z,9.23
2018-12-23T03:32:23.312Z,10.07
2018-12-23T03:34:50.892Z,9.47
2018-12-23T03:37:18.356Z,9.73
2018-12-23T03:39:45.826Z,9.73
2018-12-23T03:42:13.276Z,10.83
2018-12-23T03:44:40.740Z,10.13
2018-12-23T03:47:08.216Z,11.20
2018-12-23T03:49:35.768Z,11.17
2018-12-23T03:52:03.232Z,13.20
2018-12-23T03:54:30.689Z,12.03
2018-12-23T03:56:58.151Z,11.87
2018-12-23T03:59:25.622Z,13.43
2018-12-23T04:01:53.176Z,13.67
2018-12-23T04:04:20.645Z,13.30
2018-12-23T04:06:48.105Z,12.90
2018-12-23T04:09:15.563Z,13.10
2018-12-23T04:11:42.994Z,13.50
2018-12-23T04:14:10.452Z,13.53
2018-12-23T04:16:37.881Z,12.43
2018-12-23T04:19:05.407Z,12.60
2018-12-23T04:21:32.980Z,15.13
2018-12-23T04:24:00.536Z,13.93
2018-12-23T04:26:27.965Z,15.90
2018-12-23T04:28:55.462Z,15.73
2018-12-23T04:31:23.028Z,14.73
2018-12-23T04:33:50.482Z,15.23
2018-12-23T04:36:17.946Z,16.30
2018-12-23T04:38:45.401Z,17.10
2018-12-23T04:41:12.833Z,15.80
2018-12-23T04:43:40.332Z,15.80
2018-12-23T04:46:07.793Z,16.30
2018-12-23T04:48:35.250Z,15.83
2018-12-23T04:51:02.686Z,19.10
2018-12-23T04:53:30.176Z,17.10
2018-12-23T04:55:57.637Z,17.70
2018-12-23T04:58:25.071Z,17.77
2018-12-23T05:00:52.661Z,17.17
2018-12-23T05:03:20.119Z,17.50
2018-12-23T05:05:47.593Z,18.37
2018-12-23T05:08:15.032Z,18.57
2018-12-23T05:10:42.464Z,19.60
2018-12-23T05:13:09.967Z,19.70
2018-12-23T05:15:37.409Z,18.60
2018-12-23T05:18:04.839Z,19.33
2018-12-23T05:20:32.421Z,18.57
2018-12-23T05:22:59.920Z,19.43
2018-12-23T05:25:27.381Z,19.30
2018-12-23T05:27:54.951Z,19.07
2018-12-23T05:30:22.404Z,19.13
2018-12-23T05:32:49.972Z,18.60
2018-12-23T05:35:17.469Z,19.00
2018-12-23T05:37:44.904Z,19.90
2018-12-23T05:40:12.347Z,19.57
2018-12-23T05:42:39.817Z,19.17
2018-12-23T05:45:07.324Z,18.20
2018-12-23T05:47:34.836Z,19.17
2018-12-23T05:50:02.400Z,18.33
2018-12-23T05:52:29.832Z,18.43
2018-12-23T05:54:57.268Z,18.73
2018-12-23T05:57:24.700Z,18.00
2018-12-23T05:59:52.156Z,21.07
2018-12-23T06:02:19.706Z,19.47
2018-12-23T06:04:47.176Z,20.17
2018-12-23T06:07:14.628Z,19.20
2018-12-23T06:09:42.087Z,20.67
2018-12-23T06:12:09.520Z,18.83
2018-12-23T06:14:37.016Z,19.50
2018-12-23T06:17:04.475Z,19.40
2018-12-23T06:19:31.912Z,17.43
2018-12-23T06:21:59.417Z,18.60
2018-12-23T06:24:26.968Z,18.27
2018-12-23T06:26:54.414Z,18.60
2018-12-23T06:29:21.989Z,17.43
2018-12-23T06:31:49.449Z,19.17
2018-12-23T06:34:16.912Z,18.53
2018-12-23T06:36:44.373Z,17.67
2018-12-23T06:39:11.807Z,18.87
2018-12-23T06:41:39.299Z,18.80
2018-12-23T06:44:06.728Z,18.37
2018-12-23T06:46:34.182Z,17.90
2018-12-23T06:49:01.681Z,19.43
2018-12-23T06:51:29.142Z,17.83
2018-12-23T06:53:56.609Z,18.40
2018-12-23T06:56:24.173Z,19.00
2018-12-23T06:58:51.632Z,18.57
2018-12-23T07:01:19.188Z,18.70
2018-12-23T07:03:46.661Z,18.70
2018-12-23T07:06:14.083Z,19.20
2018-12-23T07:08:41.584Z,18.93
2018-12-23T07:11:09.017Z,18.20
2018-12-23T07:13:36.601Z,18.17
2018-12-23T07:16:04.169Z,18.00
2018-12-23T07:18:31.609Z,18.60
2018-12-23T07:20:59.087Z,19.23
2018-12-23T07:23:26.852Z,18.73
2018-12-23T07:25:54.419Z,17.10
2018-12-23T07:28:21.889Z,17.37
2018-12-23T07:30:49.344Z,18.07
2018-12-23T07:33:16.776Z,16.73
2018-12-23T07:35:44.264Z,18.40
2018-12-23T07:38:11.724Z,17.50
2018-12-23T07:40:39.256Z,17.57
2018-12-23T07:43:06.761Z,16.27
2018-12-23T07:45:34.211Z,17.47
2018-12-23T07:48:01.668Z,17.77
2018-12-23T07:50:29.099Z,15.80
2018-12-23T07:52:56.549Z,16.90
2018-12-23T07:55:23.991Z,16.83
2018-12-23T07:57:51.412Z,18.57
2018-12-23T08:00:18.892Z,16.03
2018-12-23T08:02:46.360Z,16.77
2018-12-23T08:05:13.804Z,16.50
2018-12-23T08:07:41.234Z,16.07
2018-12-23T08:10:08.744Z,16.80
2018-12-23T08:12:36.184Z,14.97
2018-12-23T08:15:03.749Z,15.27
2018-12-23T08:17:31.205Z,15.37
2018-12-23T08:19:58.683Z,16.00
2018-12-23T08:22:26.112Z,15.90
2018-12-23T08:24:53.594Z,14.20
2018-12-23T08:27:21.060Z,14.50
2018-12-23T08:29:48.503Z,14.57
2018-12-23T08:32:15.982Z,16.90
2018-12-23T08:34:43.510Z,14.97
2018-12-23T08:37:11.016Z,14.07
2018-12-23T08:39:38.472Z,14.73
2018-12-23T08:42:06.033Z,13.73
2018-12-23T08:44:33.491Z,12.50
2018-12-23T08:47:00.956Z,12.90
2018-12-23T08:49:28.418Z,12.70
2018-12-23T08:51:55.895Z,12.00
2018-12-23T08:54:23.336Z,13.10
2018-12-23T08:56:50.809Z,13.87
2018-12-23T08:59:18.272Z,13.00
2018-12-23T09:01:45.715Z,12.30
2018-12-23T09:04:13.289Z,12.03
2018-12-23T09:06:40.748Z,12.30
2018-12-23T09:09:08.188Z,13.40
2018-12-23T09:11:42.627Z,12.23
2018-12-23T09:14:05.188Z,12.50
2018-12-23T09:16:32.759Z,12.60
2018-12-23T09:19:00.188Z,12.30
2018-12-23T09:21:27.659Z,13.87
2018-12-23T09:23:55.116Z,13.03
2018-12-23T09:26:22.588Z,12.87
2018-12-23T09:28:50.057Z,12.97
2018-12-23T09:31:17.513Z,12.83
2018-12-23T09:33:45.078Z,13.47
2018-12-23T09:36:12.521Z,13.00
2018-12-23T09:38:39.959Z,12.13
2018-12-23T09:41:07.462Z,12.83
2018-12-23T09:43:34.892Z,11.93
2018-12-23T09:46:02.330Z,11.37
2018-12-23T09:48:29.844Z,11.70
2018-12-23T09:50:57.296Z,11.07
2018-12-23T09:53:24.771Z,11.83
2018-12-23T09:55:52.208Z,11.57
2018-12-23T09:58:19.640Z,12.93
2018-12-23T10:00:47.119Z,9.73
2018-12-23T10:03:14.551Z,10.87
2018-12-23T10:05:42.004Z,10.83
2018-12-23T10:08:10.388Z,10.83
2018-12-23T10:10:38.128Z,10.70
2018-12-23T10:13:06.542Z,9.17
2018-12-23T10:15:33.980Z,9.37
2018-12-23T10:18:01.409Z,8.30
2018-12-23T10:20:28.890Z,10.20
2018-12-23T10:22:56.333Z,8.73
2018-12-23T10:25:23.768Z,8.67
2018-12-23T10:27:51.201Z,9.77
2018-12-23T10:30:18.731Z,9.13
2018-12-23T10:32:46.263Z,8.90
2018-12-23T10:35:13.696Z,9.00
2018-12-23T10:37:41.171Z,9.80
2018-12-23T10:40:08.608Z,9.63
2018-12-23T10:42:36.047Z,8.43
2018-12-23T10:45:04.297Z,9.55
2018-12-23T10:47:31.729Z,8.90
2018-12-23T10:49:59.168Z,8.73
2018-12-23T10:52:26.671Z,8.30
2018-12-23T10:54:54.132Z,7.87
2018-12-23T10:57:21.583Z,7.73
2018-12-23T10:59:49.021Z,7.73
2018-12-23T11:02:16.464Z,9.20
2018-12-23T11:04:43.926Z,8.27
2018-12-23T11:07:11.401Z,7.90
2018-12-23T11:09:38.832Z,7.73
2018-12-23T11:12:06.339Z,8.40
2018-12-23T11:14:33.768Z,9.07
2018-12-23T11:17:01.218Z,10.07
2018-12-23T11:19:28.688Z,8.27
2018-12-23T11:21:56.128Z,8.00
2018-12-23T11:24:23.560Z,7.40
2018-12-23T11:26:50.996Z,7.37
2018-12-23T11:29:18.434Z,8.60
2018-12-23T11:31:45.873Z,7.70
2018-12-23T11:34:13.306Z,9.10
2018-12-23T11:36:40.743Z,7.77
2018-12-23T11:39:08.268Z,8.00
2018-12-23T11:41:35.733Z,8.90
2018-12-23T11:44:03.165Z,7.67
2018-12-23T11:46:30.601Z,7.90
2018-12-23T11:48:58.024Z,8.93
2018-12-23T11:51:25.543Z,7.50
2018-12-23T11:53:52.953Z,8.90
2018-12-23T11:56:20.420Z,7.40
2018-12-23T11:58:47.872Z,6.93
2018-12-23T12:01:15.319Z,5.40
2018-12-23T12:03:42.747Z,5.30
2018-12-23T12:06:10.185Z,4.30
2018-12-23T12:08:43.681Z,3.83
2018-12-23T12:11:07.036Z,3.93
2018-12-23T12:13:34.469Z,3.70
2018-12-23T12:16:01.901Z,3.27
2018-12-23T12:18:29.336Z,4.27
2018-12-23T12:20:56.759Z,4.20
2018-12-23T12:23:24.237Z,5.27
2018-12-23T12:25:51.743Z,4.37
2018-12-23T12:28:19.182Z,4.50
2018-12-23T12:30:46.608Z,4.57
2018-12-23T12:33:14.044Z,4.77
2018-12-23T12:35:41.474Z,4.97
2018-12-23T12:38:08.956Z,6.13
2018-12-23T12:40:36.422Z,6.80
2018-12-23T12:43:03.856Z,7.40
2018-12-23T12:45:31.276Z,8.67
2018-12-23T12:47:58.716Z,9.67
2018-12-23T12:50:26.143Z,9.87
2018-12-23T12:52:53.580Z,9.80
2018-12-23T12:55:21.049Z,10.80
2018-12-23T12:57:48.492Z,10.77
2018-12-23T13:00:15.920Z,11.17
2018-12-23T13:02:43.364Z,10.80
2018-12-23T13:05:10.801Z,11.40
2018-12-23T13:07:38.252Z,12.10
2018-12-23T13:10:05.718Z,11.53
2018-12-23T13:12:33.161Z,10.57
2018-12-23T13:15:00.591Z,10.63
2018-12-23T13:17:28.024Z,8.70
2018-12-23T13:19:55.448Z,7.70
2018-12-23T13:22:22.888Z,6.70
2018-12-23T13:24:50.307Z,6.43
2018-12-23T13:27:17.744Z,5.03
2018-12-23T13:29:45.164Z,4.83
2018-12-23T13:32:12.599Z,3.80
2018-12-23T13:34:40.027Z,4.07
2018-12-23T13:37:07.459Z,4.00
2018-12-23T13:39:34.892Z,4.20
2018-12-23T13:42:06.918Z,5.13
2018-12-23T13:44:42.253Z,4.97
2018-12-23T13:47:18.317Z,5.43
2018-12-23T13:53:27.186Z,5.80
2018-12-23T13:56:15.394Z,6.20
2018-12-23T13:58:52.976Z,7.10
2018-12-23T14:01:50.366Z,6.40
2018-12-23T14:04:24.907Z,7.80
2018-12-23T14:07:17.705Z,7.00
2018-12-23T14:10:10.262Z,7.07
2018-12-23T14:12:39.039Z,6.90
2018-12-23T14:15:07.922Z,8.00
2018-12-23T14:17:37.186Z,8.63
2018-12-23T14:20:06.676Z,7.37
2018-12-23T14:22:35.371Z,9.47
2018-12-23T14:25:04.951Z,10.00
2018-12-23T14:27:33.735Z,9.27
2018-12-23T14:30:02.335Z,8.67
2018-12-23T14:32:31.147Z,7.03
2018-12-23T14:34:59.971Z,7.07
2018-12-23T14:37:28.566Z,7.57
2018-12-23T14:39:57.118Z,7.53
2018-12-23T14:42:26.000Z,7.40
2018-12-23T14:44:54.678Z,8.00
2018-12-23T14:47:23.574Z,9.20
2018-12-23T14:49:52.411Z,8.50
2018-12-23T14:52:20.951Z,8.37
2018-12-23T14:54:49.777Z,7.90
2018-12-23T14:57:18.639Z,8.10
2018-12-23T14:59:47.491Z,6.90
2018-12-23T15:02:16.202Z,8.10
2018-12-23T15:04:45.069Z,8.27
2018-12-23T15:07:13.615Z,8.23
2018-12-23T15:09:42.472Z,8.30
2018-12-23T15:12:11.026Z,6.90
2018-12-23T15:14:39.590Z,7.90
2018-12-23T15:17:08.442Z,10.47
2018-12-23T15:19:37.308Z,10.80
2018-12-23T15:22:05.947Z,9.30
2018-12-23T15:24:34.520Z,11.10
2018-12-23T15:27:03.074Z,10.40
2018-12-23T15:29:31.937Z,11.00
2018-12-23T15:32:00.655Z,11.63
2018-12-23T15:34:29.265Z,12.37
2018-12-23T15:36:57.935Z,10.67
2018-12-23T15:39:26.520Z,10.47
2018-12-23T15:41:55.455Z,11.00
2018-12-23T15:44:24.007Z,10.73
2018-12-23T15:46:52.917Z,10.80
2018-12-23T15:49:21.581Z,10.43
2018-12-23T15:51:50.236Z,11.20
2018-12-23T15:54:19.055Z,11.47
2018-12-23T15:56:47.700Z,11.60
2018-12-23T15:59:16.267Z,12.30
2018-12-23T16:01:44.898Z,10.80
2018-12-23T16:04:13.694Z,10.97
2018-12-23T16:06:42.249Z,9.60
2018-12-23T16:09:11.120Z,10.17
2018-12-23T16:11:39.769Z,10.30
2018-12-23T16:14:08.593Z,10.57
2018-12-23T16:16:37.539Z,11.37
2018-12-23T16:19:06.457Z,10.57
2018-12-23T16:21:35.359Z,11.20
2018-12-23T16:24:04.199Z,11.03
2018-12-23T16:26:32.761Z,11.83
2018-12-23T16:29:01.599Z,11.63
2018-12-23T16:31:30.439Z,12.20
2018-12-23T16:33:59.088Z,10.43
2018-12-23T16:36:27.711Z,10.83
2018-12-23T16:38:56.276Z,10.30
2018-12-23T16:41:25.143Z,10.73
2018-12-23T16:43:53.988Z,11.70
2018-12-23T16:46:22.543Z,12.67
2018-12-23T16:48:51.122Z,14.90
2018-12-23T16:51:19.960Z,13.83
2018-12-23T16:53:48.778Z,13.17
2018-12-23T16:56:17.324Z,12.90
2018-12-23T16:58:46.239Z,12.83
2018-12-23T17:01:14.791Z,13.43
2018-12-23T17:03:43.603Z,15.10
2018-12-23T17:06:12.495Z,14.20
2018-12-23T17:08:41.381Z,13.90
2018-12-23T17:11:10.228Z,13.57
2018-12-23T17:13:38.902Z,13.97
2018-12-23T17:16:07.431Z,11.40
2018-12-23T17:18:35.998Z,8.90
2018-12-23T17:21:04.547Z,10.20
2018-12-23T17:23:33.102Z,10.50
2018-12-23T17:26:01.708Z,9.73
2018-12-23T17:28:30.658Z,10.90
2018-12-23T17:30:59.638Z,11.07
2018-12-23T17:33:28.379Z,11.50
2018-12-23T17:35:57.177Z,11.40
2018-12-23T17:38:25.924Z,12.27
2018-12-23T17:40:54.654Z,12.93
2018-12-23T17:43:23.337Z,13.67
2018-12-23T17:45:52.012Z,12.23
2018-12-23T17:48:20.737Z,13.50
2018-12-23T17:50:49.844Z,13.17
2018-12-23T17:53:18.996Z,13.70
2018-12-23T17:55:47.718Z,14.57
2018-12-23T17:58:16.877Z,13.83
2018-12-23T18:00:45.639Z,14.10
2018-12-23T18:03:14.424Z,15.80
2018-12-23T18:05:43.427Z,16.57
2018-12-23T18:08:12.675Z,16.50
2018-12-23T18:10:41.278Z,15.07
2018-12-23T18:13:10.232Z,12.70
2018-12-23T18:15:38.850Z,13.30
2018-12-23T18:18:07.527Z,11.10
2018-12-23T18:20:36.644Z,11.07
2018-12-23T18:23:05.721Z,12.20
2018-12-23T18:25:34.585Z,13.43
2018-12-23T18:28:03.874Z,12.60
2018-12-23T18:30:32.460Z,10.87
2018-12-23T18:33:01.003Z,10.03
2018-12-23T18:35:29.813Z,9.40
2018-12-23T18:37:58.731Z,8.33
2018-12-23T18:40:33.322Z,8.47
2018-12-23T18:42:57.689Z,6.93
2018-12-23T18:45:26.567Z,6.37
2018-12-23T18:47:55.457Z,5.93
2018-12-23T18:50:24.342Z,6.30
2018-12-23T18:52:53.141Z,5.50
2018-12-23T18:55:22.519Z,5.70
2018-12-23T18:57:51.739Z,5.03
2018-12-23T19:00:20.545Z,6.20
2018-12-23T19:02:49.276Z,5.37
2018-12-23T19:05:18.062Z,6.00
2018-12-23T19:07:46.891Z,5.20
2018-12-23T19:10:24.251Z,5.93
2018-12-23T19:12:59.175Z,6.20
2018-12-23T19:15:33.667Z,6.23
2018-12-23T19:18:05.533Z,7.10
2018-12-23T19:21:11.978Z,7.20
2018-12-23T19:23:49.973Z,6.30
2018-12-23T19:26:56.283Z,7.03
2018-12-23T19:29:30.782Z,5.97
2018-12-23T19:32:02.955Z,4.90
2018-12-23T19:34:55.422Z,3.73
2018-12-23T19:37:39.056Z,3.90
2018-12-23T19:40:23.200Z,3.30
2018-12-23T19:43:28.189Z,3.53
2018-12-23T19:46:32.919Z,3.13
2018-12-23T19:49:13.939Z,3.53
2018-12-23T19:51:48.621Z,3.70
2018-12-23T19:54:38.302Z,3.90
2018-12-23T19:57:29.710Z,3.60
2018-12-23T20:00:01.630Z,3.90
2018-12-23T20:02:42.116Z,3.63
2018-12-23T20:05:26.091Z,3.70
2018-12-23T20:08:18.002Z,3.63
2018-12-23T20:11:06.192Z,3.60
2018-12-23T20:13:51.890Z,3.50
2018-12-23T20:16:45.882Z,3.50
2018-12-23T20:19:33.909Z,2.70
2018-12-23T20:22:14.359Z,3.30
2018-12-23T20:24:52.024Z,3.63
2018-12-23T20:27:35.254Z,3.00
2018-12-23T20:30:18.821Z,3.20
2018-12-23T20:32:58.928Z,2.80
2018-12-23T20:35:38.782Z,2.87
2018-12-23T20:38:10.708Z,2.90
2018-12-23T20:41:15.045Z,3.13
2018-12-23T20:44:01.648Z,3.53
2018-12-23T20:46:36.029Z,1.93
2018-12-23T20:49:33.309Z,2.47
2018-12-23T20:52:10.970Z,2.30
2018-12-23T20:54:54.532Z,2.37
2018-12-23T20:57:28.821Z,2.63
2018-12-23T21:00:03.925Z,2.30
2018-12-23T21:02:54.802Z,2.83
2018-12-23T21:05:42.640Z,2.20
2018-12-23T21:08:14.258Z,2.63
2018-12-23T21:10:49.082Z,2.73
2018-12-23T21:13:33.037Z,2.50
2018-12-23T21:16:10.788Z,2.87
2018-12-23T21:19:12.457Z,2.70
2018-12-23T21:21:56.111Z,3.40
2018-12-23T21:24:30.430Z,3.13
2018-12-23T21:27:16.891Z,3.10
2018-12-23T21:29:54.507Z,3.03
2018-12-23T21:32:29.201Z,3.33
2018-12-23T21:35:18.918Z,3.10
2018-12-23T21:38:12.236Z,3.40
2018-12-23T21:40:52.920Z,4.20
2018-12-23T21:43:33.645Z,3.63
2018-12-23T21:46:21.647Z,3.87
2018-12-23T21:49:08.654Z,4.13
2018-12-23T21:51:58.341Z,4.43
2018-12-23T21:54:52.360Z,4.67
2018-12-23T21:57:35.675Z,5.03
2018-12-23T22:00:18.742Z,5.37
2018-12-23T22:03:02.436Z,6.03
2018-12-23T22:05:58.056Z,7.43
2018-12-23T22:08:41.480Z,5.20
2018-12-23T22:11:36.010Z,6.00
2018-12-23T22:14:04.575Z,5.70
2018-12-23T22:16:33.420Z,10.53
2018-12-23T22:19:02.035Z,6.60
2018-12-23T22:21:30.907Z,5.47
2018-12-23T22:23:59.723Z,5.50
2018-12-23T22:26:28.586Z,4.73
2018-12-23T22:28:57.360Z,4.50
2018-12-23T22:31:26.302Z,4.63
2018-12-23T22:33:55.500Z,4.60
2018-12-23T22:36:24.115Z,4.50
2018-12-23T22:38:52.696Z,4.23
2018-12-23T22:41:21.565Z,4.83
2018-12-23T22:43:50.101Z,4.30
2018-12-23T22:46:18.680Z,3.73
2018-12-23T22:48:47.274Z,4.23
2018-12-23T22:51:15.823Z,4.00
2018-12-23T22:53:44.392Z,4.70
2018-12-23T22:56:12.927Z,4.10
2018-12-23T22:58:41.815Z,4.93
2018-12-23T23:01:10.680Z,5.03
2018-12-23T23:03:39.208Z,4.03
2018-12-23T23:06:08.059Z,4.30
2018-12-23T23:08:36.893Z,4.13
2018-12-23T23:11:05.466Z,3.80
2018-12-23T23:13:34.007Z,5.27
2018-12-23T23:16:02.556Z,5.03
2018-12-23T23:18:31.387Z,5.00
2018-12-23T23:20:59.931Z,5.03
2018-12-23T23:23:28.755Z,5.17
2018-12-23T23:25:57.662Z,5.80
2018-12-23T23:28:26.215Z,7.60
2018-12-23T23:30:54.763Z,6.90
2018-12-23T23:33:24.205Z,4.10
2018-12-23T23:35:52.862Z,3.67
2018-12-23T23:38:21.736Z,2.87
2018-12-23T23:40:50.436Z,3.07
2018-12-23T23:43:20.757Z,3.33
2018-12-23T23:45:49.299Z,3.03
2018-12-23T23:48:17.832Z,3.37
2018-12-23T23:50:46.709Z,3.27
2018-12-23T23:53:15.550Z,3.10
2018-12-23T23:55:44.368Z,3.17
2018-12-23T23:58:12.970Z,2.90
